Etusivu
METAR-TAF:

METAR-TAF

Lentoasemat :

Inukjuak, Quebec, Kanada

Leveyspiiri: 58-28N, Pituuspiiri: 078-05W, korkeus merenpinnasta: 25 m

Tämänhetkinen sää

Tämä raportti tehtiin 1 tunti ja 6 minuuttia sitten, kello 09.00 UTC
Tuuli 4 kn idästä/koillisesta
Lämpötila -37°C
Kosteus 73%
Ilmanpaine 1033 hPa
Näkyvyys: 14.5 km
selkeää

METAR: CYPH 260900Z AUTO 06004KT 9SM CLR M37/M40 A3049 RMK SLP331

Aika: 05:06 (10:06 UTC)

Sääennuste

Tämä raportti tehtiin 4 tuntia ja 28 minuuttia sitten, kello 05.38 UTC
Ennuste voimassa 26. päivästä klo 06 UTC - 26. päivään klo 18 UTC
Tuuli 6 kn idästä/koillisesta
Näkyvyys: 10 km
Muutamia pilviä 1200 ft:n korkeudessa
Ajoittain
26. päivästä klo 06 UTC - 26. päivään klo 15 UTC
Näkyvyys: 8.0 km
jääkiteitä

TAF: CYPH 260538Z 2606/2618 06006KT P6SM FEW012 TEMPO 2606/2615 5SM IC RMK FCST BASED ON AUTO OBS. NXT FCST BY 261200Z

Säähavainnot ja -ennusteet yli 4000 lentoasemalta (METAR- ja TAF-raportit).

Käytössä olevat sääasemat on merkitty karttaan keltaisilla ja punaisilla pisteillä.

Aseta hiiri pisteen päälle nähdäksesi sääaseman nimen.

Klikkaa sitten nähdäksesi säähavainnot ja -ennusteet.

Kartan vaihtaminen: klikkaa mustalla rastilla varustettuja vihreitä pisteitä, niin voit zoomata sisään; viivalla varustettua vihreää pistettä, niin voit zoomata ulos tai vihreitä nuolia, niin pääset viereisille kartoille.


METAR-TAF: